WAQQ Airport Information

Runway Information
Airport Frequencies
Airport Navaids
Airport Weather Information & NOTAM
ADDS - METARS form results

(1019 UTC 23 March 2019)
Data provider http://aviationweather.gov/metar/data/
 
Forecast for: WAQQ (JUWATA , ID)
Text: TAF WAQQ 230500Z 2306/2318 24003KT 9000 BKN015
Forecast period: 0600 to 0800 UTC 23 March 2019
Forecast type: FROM: standard forecast or significant change
Winds: from the WSW (240 degrees) at 3 MPH (3 knots; 1.5 m/s)
Visibility: 6 miles (9 km)
Ceiling: 1500 feet AGL
Clouds: broken clouds at 1500 feet AGL
Weather: no significant weather forecast for this period
Text: BECMG 2308/2310 05006KT SCT015
Forecast period: 0800 to 1800 UTC 23 March 2019
Forecast type: BECOMING: Conditions expected to become as follows by 1000 UTC 23 March 2019
Winds: from the NE (50 degrees) at 7 MPH (6 knots; 3.1 m/s)
Visibility: 6 miles (9 km)
Ceiling: at least 12,000 feet AGL
Clouds: scattered clouds at 1500 feet AGL
Weather: no significant weather forecast for this period